createdAt,value
2019-03-31T00:00:10.099Z,30.10
2019-03-31T00:01:10.022Z,31.30
2019-03-31T00:02:10.001Z,30.70
2019-03-31T00:03:09.979Z,32.30
2019-03-31T00:04:10.012Z,30.60
2019-03-31T00:05:09.971Z,32.50
2019-03-31T00:06:10.047Z,31.30
2019-03-31T00:07:09.923Z,30.80
2019-03-31T00:08:09.929Z,31.70
2019-03-31T00:09:09.932Z,30.80
2019-03-31T00:10:09.940Z,30.50
2019-03-31T00:11:09.903Z,32.20
2019-03-31T00:12:09.869Z,28.10
2019-03-31T00:13:09.895Z,29.30
2019-03-31T00:14:09.869Z,31.40
2019-03-31T00:15:09.841Z,32.50
2019-03-31T00:16:09.867Z,31.30
2019-03-31T00:17:09.814Z,34.00
2019-03-31T00:18:09.899Z,30.90
2019-03-31T00:19:09.806Z,30.20
2019-03-31T00:20:09.800Z,33.70
2019-03-31T00:21:09.787Z,31.10
2019-03-31T00:22:09.755Z,28.50
2019-03-31T00:23:09.749Z,33.50
2019-03-31T00:24:09.744Z,30.50
2019-03-31T00:25:09.776Z,33.50
2019-03-31T00:26:09.761Z,32.90
2019-03-31T00:27:09.722Z,31.80
2019-03-31T00:28:09.720Z,31.80
2019-03-31T00:29:09.682Z,29.40
2019-03-31T00:30:09.689Z,31.30
2019-03-31T00:31:21.422Z,33.90
2019-03-31T00:32:10.655Z,29.90
2019-03-31T00:33:09.650Z,30.90
2019-03-31T00:34:09.621Z,30.10
2019-03-31T00:35:09.697Z,29.90
2019-03-31T00:36:09.627Z,30.30
2019-03-31T00:37:09.613Z,30.30
2019-03-31T00:38:09.618Z,29.80
2019-03-31T00:39:09.583Z,29.20
2019-03-31T00:40:09.560Z,31.30
2019-03-31T00:41:09.592Z,30.70
2019-03-31T00:42:09.625Z,30.30
2019-03-31T00:43:09.573Z,27.50
2019-03-31T00:44:09.515Z,28.50
2019-03-31T00:45:09.514Z,25.50
2019-03-31T00:46:09.493Z,25.80
2019-03-31T00:47:09.558Z,29.00
2019-03-31T00:48:09.482Z,26.10
2019-03-31T00:49:09.466Z,27.10
2019-03-31T00:50:09.443Z,27.30
2019-03-31T00:51:09.438Z,27.40
2019-03-31T00:52:09.443Z,27.60
2019-03-31T00:53:09.425Z,27.50
2019-03-31T00:54:09.426Z,27.10
2019-03-31T00:55:09.423Z,26.70
2019-03-31T00:56:09.391Z,27.20
2019-03-31T00:57:09.380Z,24.70
2019-03-31T00:58:09.354Z,31.10
2019-03-31T00:59:09.378Z,26.10
2019-03-31T01:00:09.331Z,26.70
2019-03-31T01:01:09.339Z,25.60
2019-03-31T01:02:09.399Z,26.50
2019-03-31T01:03:09.302Z,28.70
2019-03-31T01:04:09.289Z,26.70
2019-03-31T01:05:09.325Z,28.30
2019-03-31T01:06:09.262Z,24.70
2019-03-31T01:07:09.286Z,25.00
2019-03-31T01:08:09.346Z,26.90
2019-03-31T01:09:09.233Z,26.10
2019-03-31T01:10:09.228Z,27.20
2019-03-31T01:11:09.223Z,26.10
2019-03-31T01:12:09.219Z,28.10
2019-03-31T01:13:09.194Z,25.80
2019-03-31T01:14:09.183Z,24.80
2019-03-31T01:15:09.195Z,25.50
2019-03-31T01:16:09.180Z,26.40
2019-03-31T01:17:09.177Z,24.70
2019-03-31T01:18:09.174Z,23.20
2019-03-31T01:19:09.124Z,25.70
2019-03-31T01:20:09.118Z,25.80
2019-03-31T01:21:09.116Z,26.30
2019-03-31T01:22:09.113Z,25.70
2019-03-31T01:23:09.074Z,26.40
2019-03-31T01:24:09.072Z,26.50
2019-03-31T01:25:09.063Z,25.00
2019-03-31T01:26:09.070Z,26.10
2019-03-31T01:27:09.069Z,26.40
2019-03-31T01:28:09.067Z,24.10
2019-03-31T01:29:09.032Z,25.60
2019-03-31T01:30:09.011Z,27.10
2019-03-31T01:31:08.991Z,22.90
2019-03-31T01:32:09.013Z,26.00
2019-03-31T01:33:08.994Z,24.70
2019-03-31T01:34:09.024Z,26.10
2019-03-31T01:35:08.948Z,24.70
2019-03-31T01:36:08.937Z,25.00
2019-03-31T01:37:08.949Z,25.10
2019-03-31T01:38:09.040Z,25.60
2019-03-31T01:39:08.944Z,26.60
2019-03-31T01:40:08.928Z,25.10
2019-03-31T01:41:08.888Z,26.80
2019-03-31T01:42:08.889Z,26.30
2019-03-31T01:43:08.892Z,25.30
2019-03-31T01:44:08.867Z,27.60
2019-03-31T01:45:08.872Z,28.80
2019-03-31T01:46:08.825Z,26.70
2019-03-31T01:47:08.815Z,25.70
2019-03-31T01:48:08.824Z,27.00
2019-03-31T01:49:08.831Z,27.70
2019-03-31T01:50:08.803Z,26.70
2019-03-31T01:51:08.780Z,27.00
2019-03-31T01:52:08.766Z,25.90
2019-03-31T01:53:08.776Z,27.70
2019-03-31T01:54:08.732Z,28.60
2019-03-31T01:55:08.734Z,27.20
2019-03-31T01:56:08.714Z,27.70
2019-03-31T01:57:08.697Z,26.90
2019-03-31T01:58:08.716Z,27.70
2019-03-31T01:59:08.692Z,29.90
2019-03-31T02:00:08.666Z,27.70
2019-03-31T02:01:08.675Z,26.40
2019-03-31T02:02:08.652Z,29.50
2019-03-31T02:03:08.674Z,27.20
2019-03-31T02:04:08.624Z,28.70
2019-03-31T02:05:08.605Z,27.70
2019-03-31T02:06:08.610Z,26.60
2019-03-31T02:07:08.647Z,27.60
2019-03-31T02:08:08.595Z,28.50
2019-03-31T02:09:08.566Z,27.40
2019-03-31T02:10:08.590Z,29.30
2019-03-31T02:11:08.544Z,28.40
2019-03-31T02:12:08.545Z,29.10
2019-03-31T02:13:08.571Z,26.90
2019-03-31T02:14:08.505Z,27.70
2019-03-31T02:15:08.496Z,26.90
2019-03-31T02:16:08.502Z,29.60
2019-03-31T02:17:08.503Z,27.80
2019-03-31T02:18:08.500Z,28.20
2019-03-31T02:19:09.642Z,31.50
2019-03-31T02:20:08.442Z,30.40
2019-03-31T02:21:08.461Z,29.10
2019-03-31T02:22:08.437Z,29.60
2019-03-31T02:23:08.420Z,31.50
2019-03-31T02:24:08.459Z,29.00
2019-03-31T02:25:08.382Z,28.60
2019-03-31T02:26:08.373Z,29.10
2019-03-31T02:27:08.384Z,31.20
2019-03-31T02:28:08.360Z,31.40
2019-03-31T02:29:08.368Z,32.60
2019-03-31T02:30:08.352Z,30.40
2019-03-31T02:31:08.312Z,30.60
2019-03-31T02:32:22.567Z,30.50
2019-03-31T02:33:09.301Z,30.90
2019-03-31T02:34:08.309Z,30.70
2019-03-31T02:35:08.296Z,29.90
2019-03-31T02:36:08.276Z,32.70
2019-03-31T02:37:08.269Z,31.10
2019-03-31T02:38:08.245Z,35.20
2019-03-31T02:39:08.272Z,29.40
2019-03-31T02:40:08.242Z,33.40
2019-03-31T02:41:08.287Z,34.70
2019-03-31T02:42:08.243Z,32.00
2019-03-31T02:43:08.205Z,34.50
2019-03-31T02:44:08.213Z,33.50
2019-03-31T02:45:08.229Z,31.90
2019-03-31T02:46:08.163Z,31.60
2019-03-31T02:47:08.144Z,34.30
2019-03-31T02:48:08.125Z,33.30
2019-03-31T02:49:08.164Z,35.50
2019-03-31T02:50:08.111Z,33.10
2019-03-31T02:51:08.115Z,32.60
2019-03-31T02:52:08.111Z,31.10
2019-03-31T02:53:08.086Z,34.20
2019-03-31T02:54:08.125Z,31.90
2019-03-31T02:55:08.104Z,34.00
2019-03-31T02:56:08.061Z,31.30
2019-03-31T02:57:08.099Z,34.60
2019-03-31T02:58:08.008Z,33.00
2019-03-31T02:59:08.020Z,32.30
2019-03-31T03:00:08.007Z,32.50
2019-03-31T03:01:08.010Z,31.60
2019-03-31T03:02:07.993Z,33.10
2019-03-31T03:03:07.969Z,35.40
2019-03-31T03:04:08.219Z,33.40
2019-03-31T03:05:18.911Z,33.80
2019-03-31T03:06:08.949Z,36.30
2019-03-31T03:07:07.950Z,34.60
2019-03-31T03:08:07.911Z,32.70
2019-03-31T03:09:08.019Z,33.80
2019-03-31T03:10:07.890Z,35.10
2019-03-31T03:11:07.881Z,34.10
2019-03-31T03:12:07.864Z,35.50
2019-03-31T03:13:07.854Z,35.70
2019-03-31T03:14:07.858Z,34.10
2019-03-31T03:15:07.835Z,34.70
2019-03-31T03:16:07.821Z,36.60
2019-03-31T03:17:07.817Z,34.60
2019-03-31T03:18:07.816Z,35.70
2019-03-31T03:19:07.803Z,35.50
2019-03-31T03:20:07.781Z,35.40
2019-03-31T03:21:07.773Z,37.50
2019-03-31T03:22:07.793Z,38.30
2019-03-31T03:23:07.733Z,36.10
2019-03-31T03:24:07.760Z,34.80
2019-03-31T03:25:07.733Z,34.10
2019-03-31T03:26:07.749Z,35.40
2019-03-31T03:27:07.699Z,38.60
2019-03-31T03:28:07.690Z,37.60
2019-03-31T03:29:07.707Z,36.00
2019-03-31T03:30:07.683Z,33.30
2019-03-31T03:31:14.692Z,37.60
2019-03-31T03:32:08.674Z,34.70
2019-03-31T03:33:17.584Z,36.20
2019-03-31T03:34:08.648Z,39.40
2019-03-31T03:35:07.599Z,37.00
2019-03-31T03:36:07.595Z,36.30
2019-03-31T03:37:07.579Z,37.20
2019-03-31T03:38:07.564Z,37.30
2019-03-31T03:39:07.572Z,38.90
2019-03-31T03:40:07.576Z,39.80
2019-03-31T03:41:07.588Z,37.80
2019-03-31T03:42:07.529Z,39.60
2019-03-31T03:43:07.513Z,36.30
2019-03-31T03:44:07.526Z,39.70
2019-03-31T03:45:07.488Z,39.70
2019-03-31T03:46:07.492Z,38.80
2019-03-31T03:47:07.487Z,39.20
2019-03-31T03:48:07.563Z,39.70
2019-03-31T03:49:07.550Z,38.00
2019-03-31T03:50:07.432Z,38.50
2019-03-31T03:51:07.433Z,38.30
2019-03-31T03:52:07.422Z,38.30
2019-03-31T03:53:07.408Z,39.70
2019-03-31T03:54:07.396Z,38.30
2019-03-31T03:55:07.438Z,40.20
2019-03-31T03:56:07.382Z,40.80
2019-03-31T03:57:07.363Z,39.10
2019-03-31T03:58:07.369Z,40.40
2019-03-31T03:59:07.364Z,43.60
2019-03-31T04:00:07.357Z,41.50
2019-03-31T04:01:07.316Z,38.80
2019-03-31T04:02:07.304Z,40.40
2019-03-31T04:03:07.280Z,43.00
2019-03-31T04:04:07.277Z,40.60
2019-03-31T04:05:07.297Z,39.30
2019-03-31T04:06:07.272Z,43.80
2019-03-31T04:07:07.267Z,43.50
2019-03-31T04:08:07.233Z,40.20
2019-03-31T04:09:07.237Z,44.30
2019-03-31T04:10:07.234Z,42.70
2019-03-31T04:11:07.252Z,41.10
2019-03-31T04:12:07.212Z,40.30
2019-03-31T04:13:07.177Z,42.50
2019-03-31T04:14:07.163Z,42.10
2019-03-31T04:15:07.163Z,43.40
2019-03-31T04:16:07.169Z,42.00
2019-03-31T04:17:07.128Z,42.10
2019-03-31T04:18:07.111Z,45.60
2019-03-31T04:19:07.103Z,46.20
2019-03-31T04:20:07.210Z,43.90
2019-03-31T04:21:07.099Z,45.00
2019-03-31T04:22:07.079Z,43.00
2019-03-31T04:23:07.101Z,43.30
2019-03-31T04:24:07.051Z,46.90
2019-03-31T04:25:07.058Z,46.40
2019-03-31T04:26:07.038Z,44.90
2019-03-31T04:27:07.049Z,48.70
2019-03-31T04:28:07.027Z,43.30
2019-03-31T04:29:07.029Z,47.80
2019-03-31T04:30:07.017Z,48.20
2019-03-31T04:31:06.970Z,44.60
2019-03-31T04:32:06.977Z,47.30
2019-03-31T04:33:06.954Z,47.70
2019-03-31T04:34:06.939Z,47.50
2019-03-31T04:35:06.945Z,50.10
2019-03-31T04:36:06.951Z,52.40
2019-03-31T04:37:06.900Z,50.60
2019-03-31T04:38:06.910Z,46.20
2019-03-31T04:39:06.917Z,48.50
2019-03-31T04:40:06.874Z,48.70
2019-03-31T04:41:06.875Z,48.70
2019-03-31T04:42:06.847Z,46.50
2019-03-31T04:43:06.849Z,50.10
2019-03-31T04:44:06.859Z,44.10
2019-03-31T04:45:06.885Z,48.10
2019-03-31T04:46:06.901Z,48.20
2019-03-31T04:47:06.791Z,45.70
2019-03-31T04:48:06.785Z,48.00
2019-03-31T04:49:06.784Z,46.60
2019-03-31T04:50:06.768Z,47.00
2019-03-31T04:51:06.906Z,50.60
2019-03-31T04:52:06.733Z,50.00
2019-03-31T04:53:06.727Z,49.20
2019-03-31T04:54:06.746Z,47.80
2019-03-31T04:55:06.705Z,47.90
2019-03-31T04:56:06.762Z,48.20
2019-03-31T04:57:06.670Z,48.40
2019-03-31T04:58:06.667Z,50.30
2019-03-31T04:59:06.660Z,50.70
2019-03-31T05:00:06.653Z,50.20
2019-03-31T05:01:06.673Z,47.90
2019-03-31T05:02:06.624Z,49.40
2019-03-31T05:03:06.637Z,52.50
2019-03-31T05:04:06.595Z,51.10
2019-03-31T05:05:06.589Z,51.30
2019-03-31T05:06:06.604Z,52.40
2019-03-31T05:07:06.587Z,54.50
2019-03-31T05:08:06.560Z,53.30
2019-03-31T05:09:06.553Z,54.80
2019-03-31T05:10:06.547Z,50.90
2019-03-31T05:11:06.529Z,58.10
2019-03-31T05:12:06.533Z,56.90
2019-03-31T05:13:06.541Z,55.40
2019-03-31T05:14:06.492Z,56.70
2019-03-31T05:15:06.471Z,55.70
2019-03-31T05:16:06.482Z,60.00
2019-03-31T05:17:06.484Z,55.90
2019-03-31T05:18:06.463Z,55.40
2019-03-31T05:19:06.518Z,54.60
2019-03-31T05:20:06.423Z,52.10
2019-03-31T05:21:06.481Z,54.40
2019-03-31T05:22:06.425Z,54.80
2019-03-31T05:23:06.408Z,57.20
2019-03-31T05:24:06.377Z,57.50
2019-03-31T05:25:06.440Z,56.40
2019-03-31T05:26:06.370Z,54.70
2019-03-31T05:27:06.359Z,53.80
2019-03-31T05:28:06.352Z,58.90
2019-03-31T05:29:06.332Z,56.40
2019-03-31T05:30:06.329Z,52.70
2019-03-31T05:31:06.306Z,57.40
2019-03-31T05:32:06.333Z,54.20
2019-03-31T05:33:06.277Z,56.60
2019-03-31T05:34:18.336Z,58.00
2019-03-31T05:35:07.251Z,62.50
2019-03-31T05:36:06.236Z,55.80
2019-03-31T05:37:06.248Z,62.00
2019-03-31T05:38:06.223Z,60.30
2019-03-31T05:39:06.231Z,63.80
2019-03-31T05:40:06.205Z,62.60
2019-03-31T05:41:06.191Z,66.30
2019-03-31T05:42:06.195Z,61.50
2019-03-31T05:43:06.170Z,60.10
2019-03-31T05:44:06.259Z,59.10
2019-03-31T05:45:06.152Z,56.90
2019-03-31T05:46:06.141Z,58.10
2019-03-31T05:47:06.143Z,59.60
2019-03-31T05:48:06.107Z,57.80
2019-03-31T05:49:06.133Z,61.20
2019-03-31T05:50:06.111Z,62.10
2019-03-31T05:51:06.089Z,58.20
2019-03-31T05:52:06.097Z,62.30
2019-03-31T05:53:06.055Z,59.80
2019-03-31T05:54:06.045Z,58.40
2019-03-31T05:55:06.053Z,56.90
2019-03-31T05:56:06.045Z,58.10
2019-03-31T05:57:06.037Z,58.30
2019-03-31T05:58:06.013Z,57.60
2019-03-31T05:59:05.988Z,57.20
2019-03-31T06:00:05.980Z,56.80
2019-03-31T06:01:05.976Z,53.90
2019-03-31T06:02:05.994Z,52.00
2019-03-31T06:03:05.962Z,51.30
2019-03-31T06:04:05.934Z,51.10
2019-03-31T06:05:05.927Z,58.80
2019-03-31T06:06:05.910Z,53.40
2019-03-31T06:07:05.924Z,56.70
2019-03-31T06:08:06.579Z,56.50
2019-03-31T06:09:05.922Z,50.60
2019-03-31T06:10:05.868Z,51.60
2019-03-31T06:11:05.855Z,49.50
2019-03-31T06:12:05.882Z,49.80
2019-03-31T06:13:05.846Z,48.90
2019-03-31T06:14:05.855Z,53.70
2019-03-31T06:15:05.815Z,60.20
2019-03-31T06:16:05.802Z,58.50
2019-03-31T06:17:05.798Z,51.70
2019-03-31T06:18:05.807Z,51.60
2019-03-31T06:19:05.778Z,50.20
2019-03-31T06:20:05.751Z,50.20
2019-03-31T06:21:05.748Z,51.90
2019-03-31T06:22:05.745Z,53.00
2019-03-31T06:23:05.740Z,50.40
2019-03-31T06:24:05.758Z,51.30
2019-03-31T06:25:06.104Z,51.90
2019-03-31T06:26:05.697Z,49.10
2019-03-31T06:27:05.674Z,51.30
2019-03-31T06:28:05.686Z,49.00
2019-03-31T06:29:05.688Z,55.10
2019-03-31T06:30:05.659Z,49.10
2019-03-31T06:31:05.633Z,51.00
2019-03-31T06:32:05.637Z,46.20
2019-03-31T06:33:05.632Z,49.50
2019-03-31T06:34:05.603Z,50.60
2019-03-31T06:35:05.593Z,50.30
2019-03-31T06:36:05.651Z,48.70
2019-03-31T06:37:05.575Z,50.00
2019-03-31T06:38:05.599Z,51.00
2019-03-31T06:39:05.541Z,55.20
2019-03-31T06:40:05.538Z,52.90
2019-03-31T06:41:05.722Z,51.40
2019-03-31T06:42:05.578Z,50.00
2019-03-31T06:43:05.525Z,54.80
2019-03-31T06:44:05.483Z,51.40
2019-03-31T06:45:05.512Z,50.60
2019-03-31T06:46:05.464Z,49.30
2019-03-31T06:47:05.571Z,48.90
2019-03-31T06:48:05.579Z,48.00
2019-03-31T06:49:05.445Z,46.50
2019-03-31T06:50:05.420Z,46.90
2019-03-31T06:51:05.412Z,49.50
2019-03-31T06:52:05.406Z,48.10
2019-03-31T06:53:05.437Z,49.00
2019-03-31T06:54:05.415Z,48.80
2019-03-31T06:55:05.361Z,45.00
2019-03-31T06:56:05.369Z,46.10
2019-03-31T06:57:05.352Z,41.90
2019-03-31T06:58:05.339Z,43.60
2019-03-31T06:59:05.357Z,42.70
2019-03-31T07:00:05.327Z,39.80
2019-03-31T07:01:05.299Z,45.70
2019-03-31T07:02:05.298Z,42.70
2019-03-31T07:03:05.289Z,41.20
2019-03-31T07:04:05.321Z,38.10
2019-03-31T07:05:05.261Z,42.40
2019-03-31T07:06:05.255Z,37.40
2019-03-31T07:07:05.304Z,40.50
2019-03-31T07:08:05.337Z,40.30
2019-03-31T07:09:05.290Z,36.70
2019-03-31T07:10:05.229Z,32.50
2019-03-31T07:11:05.231Z,33.80
2019-03-31T07:12:05.248Z,37.60
2019-03-31T07:13:05.193Z,34.40
2019-03-31T07:14:06.094Z,34.50
2019-03-31T07:15:06.121Z,32.20
2019-03-31T07:16:05.182Z,35.30
2019-03-31T07:17:05.134Z,32.40
2019-03-31T07:18:05.147Z,32.50
2019-03-31T07:19:05.186Z,30.20
2019-03-31T07:20:05.131Z,30.60
2019-03-31T07:21:05.125Z,30.10
2019-03-31T07:22:05.138Z,30.70
2019-03-31T07:23:05.076Z,27.10
2019-03-31T07:24:05.125Z,27.20
2019-03-31T07:25:05.027Z,28.50
2019-03-31T07:26:05.071Z,23.40
2019-03-31T07:27:05.043Z,29.80
2019-03-31T07:28:05.054Z,22.10
2019-03-31T07:29:05.095Z,25.60
2019-03-31T07:30:07.208Z,25.50
2019-03-31T07:31:05.035Z,23.10
2019-03-31T07:32:04.966Z,24.40
2019-03-31T07:33:05.088Z,22.20
2019-03-31T07:34:04.990Z,23.20
2019-03-31T07:35:17.781Z,24.10
2019-03-31T07:36:05.957Z,21.70
2019-03-31T07:37:04.950Z,23.50
2019-03-31T07:38:04.914Z,21.70
2019-03-31T07:39:05.020Z,25.30
2019-03-31T07:40:05.093Z,24.60
2019-03-31T07:41:12.498Z,21.80
2019-03-31T07:42:05.910Z,24.60
2019-03-31T07:43:05.203Z,24.90
2019-03-31T07:44:04.898Z,24.30
2019-03-31T07:45:04.962Z,22.80
2019-03-31T07:46:04.793Z,22.90
2019-03-31T07:47:04.836Z,21.80
2019-03-31T07:48:07.945Z,23.00
2019-03-31T07:49:04.758Z,22.00
2019-03-31T07:50:04.916Z,19.30
2019-03-31T07:51:04.753Z,22.50
2019-03-31T07:52:04.730Z,23.40
2019-03-31T07:53:04.741Z,23.20
2019-03-31T07:54:04.735Z,24.80
2019-03-31T07:55:04.797Z,21.80
2019-03-31T07:56:04.749Z,22.50
2019-03-31T07:57:06.965Z,20.40
2019-03-31T07:58:04.703Z,22.80
2019-03-31T07:59:04.761Z,21.50
2019-03-31T08:00:04.700Z,19.90
2019-03-31T08:01:04.635Z,26.40
2019-03-31T08:02:04.765Z,20.90
2019-03-31T08:03:04.596Z,25.10
2019-03-31T08:04:04.601Z,23.80
2019-03-31T08:05:04.709Z,22.90
2019-03-31T08:06:04.593Z,21.20
2019-03-31T08:07:04.605Z,23.60
2019-03-31T08:08:04.621Z,26.50
2019-03-31T08:09:04.558Z,23.00
2019-03-31T08:10:04.557Z,24.90
2019-03-31T08:11:04.558Z,24.70
2019-03-31T08:12:04.516Z,27.00
2019-03-31T08:13:04.502Z,24.70
2019-03-31T08:14:04.480Z,24.90
2019-03-31T08:15:04.528Z,25.40
2019-03-31T08:16:04.460Z,24.90
2019-03-31T08:17:04.487Z,26.60
2019-03-31T08:18:04.443Z,26.20
2019-03-31T08:19:04.423Z,23.50
2019-03-31T08:20:04.477Z,29.00
2019-03-31T08:21:04.442Z,24.90
2019-03-31T08:22:04.413Z,27.60
2019-03-31T08:23:04.418Z,28.50
2019-03-31T08:24:06.688Z,27.80
2019-03-31T08:25:04.431Z,23.50
2019-03-31T08:26:04.398Z,24.30
2019-03-31T08:27:05.690Z,24.90
2019-03-31T08:28:04.410Z,25.00
2019-03-31T08:29:04.336Z,26.30
2019-03-31T08:30:04.377Z,24.40
2019-03-31T08:31:04.310Z,22.80
2019-03-31T08:32:04.313Z,22.40
2019-03-31T08:33:04.295Z,25.10
2019-03-31T08:34:05.153Z,21.40
2019-03-31T08:35:04.244Z,23.10
2019-03-31T08:36:04.613Z,24.10
2019-03-31T08:37:04.232Z,20.60
2019-03-31T08:38:04.292Z,19.90
2019-03-31T08:39:04.204Z,21.00
2019-03-31T08:40:04.234Z,19.70
2019-03-31T08:41:04.544Z,20.60
2019-03-31T08:42:04.164Z,18.10
2019-03-31T08:43:04.152Z,17.60
2019-03-31T08:44:04.134Z,16.30
2019-03-31T08:45:04.131Z,16.80
2019-03-31T08:46:04.194Z,15.60
2019-03-31T08:47:04.108Z,16.80
2019-03-31T08:48:04.098Z,19.30
2019-03-31T08:49:04.199Z,18.90
2019-03-31T08:50:04.225Z,18.90
2019-03-31T08:51:04.122Z,18.90
2019-03-31T08:52:04.078Z,17.00
2019-03-31T08:53:04.049Z,16.80
2019-03-31T08:54:04.039Z,20.50
2019-03-31T08:55:04.045Z,19.00
2019-03-31T08:56:04.062Z,20.30
2019-03-31T08:57:04.000Z,16.90
2019-03-31T08:58:04.009Z,16.90
2019-03-31T08:59:03.974Z,19.70
2019-03-31T09:00:03.960Z,18.60
2019-03-31T09:01:03.960Z,20.20
2019-03-31T09:02:04.058Z,19.70
2019-03-31T09:03:03.994Z,16.90
2019-03-31T09:04:03.912Z,19.20
2019-03-31T09:05:03.917Z,21.20
2019-03-31T09:06:03.979Z,20.10
2019-03-31T09:07:03.890Z,18.90
2019-03-31T09:08:03.997Z,20.40
2019-03-31T09:09:03.870Z,20.20
2019-03-31T09:10:03.848Z,21.30
2019-03-31T09:11:03.915Z,20.60
2019-03-31T09:12:04.179Z,19.90
2019-03-31T09:13:03.816Z,21.20
2019-03-31T09:14:03.876Z,20.40
2019-03-31T09:15:03.845Z,20.10
2019-03-31T09:16:03.833Z,21.60
2019-03-31T09:17:03.801Z,21.00
2019-03-31T09:18:03.805Z,20.00
2019-03-31T09:19:03.771Z,21.90
2019-03-31T09:20:03.741Z,20.90
2019-03-31T09:21:03.767Z,20.30
2019-03-31T09:22:03.715Z,20.40
2019-03-31T09:23:03.773Z,23.80
2019-03-31T09:24:03.704Z,21.60
2019-03-31T09:25:03.711Z,20.80
2019-03-31T09:26:03.753Z,20.10
2019-03-31T09:27:03.662Z,21.60
2019-03-31T09:28:03.679Z,19.30
2019-03-31T09:29:03.670Z,17.40
2019-03-31T09:30:03.697Z,20.50
2019-03-31T09:31:04.590Z,16.70
2019-03-31T09:32:04.354Z,21.20
2019-03-31T09:33:06.706Z,17.80
2019-03-31T09:34:03.623Z,17.90
2019-03-31T09:35:03.568Z,19.60
2019-03-31T09:36:15.582Z,17.80
2019-03-31T09:37:04.571Z,17.00
2019-03-31T09:38:03.541Z,18.40
2019-03-31T09:39:03.528Z,18.60
2019-03-31T09:40:03.516Z,17.50
2019-03-31T09:41:03.517Z,18.30
2019-03-31T09:42:03.523Z,16.00
2019-03-31T09:43:03.488Z,17.00
2019-03-31T09:44:03.482Z,18.20
2019-03-31T09:45:03.493Z,18.30
2019-03-31T09:46:03.534Z,19.40
2019-03-31T09:47:03.459Z,18.20
2019-03-31T09:48:03.442Z,19.90
2019-03-31T09:49:03.460Z,23.40
2019-03-31T09:50:03.430Z,20.40
2019-03-31T09:51:03.404Z,24.30
2019-03-31T09:52:03.429Z,21.30
2019-03-31T09:53:03.381Z,22.00
2019-03-31T09:54:03.364Z,20.00
2019-03-31T09:55:03.347Z,18.20
2019-03-31T09:56:03.342Z,19.00
2019-03-31T09:57:03.352Z,16.90
2019-03-31T09:58:03.326Z,16.60
2019-03-31T09:59:03.420Z,16.10
2019-03-31T10:00:03.310Z,16.00
2019-03-31T10:01:03.294Z,16.60
2019-03-31T10:02:03.297Z,13.80
2019-03-31T10:03:03.300Z,13.60
2019-03-31T10:04:03.271Z,15.80
2019-03-31T10:05:03.241Z,13.10
2019-03-31T10:06:10.461Z,13.30
2019-03-31T10:07:04.251Z,13.80
2019-03-31T10:08:03.205Z,14.40
2019-03-31T10:09:03.188Z,14.00
2019-03-31T10:10:03.248Z,15.50
2019-03-31T10:11:03.227Z,17.00
2019-03-31T10:12:03.178Z,16.80
2019-03-31T10:13:03.148Z,18.10
2019-03-31T10:14:03.128Z,17.30
2019-03-31T10:15:03.122Z,15.30
2019-03-31T10:16:03.139Z,16.00
2019-03-31T10:17:03.099Z,17.40
2019-03-31T10:18:03.150Z,15.40
2019-03-31T10:19:03.073Z,14.10
2019-03-31T10:20:03.085Z,15.40
2019-03-31T10:21:03.064Z,14.20
2019-03-31T10:22:03.039Z,13.70
2019-03-31T10:23:03.062Z,12.50
2019-03-31T10:24:03.102Z,14.20
2019-03-31T10:25:03.007Z,14.60
2019-03-31T10:26:02.994Z,12.60
2019-03-31T10:27:03.010Z,13.50
2019-03-31T10:28:03.012Z,14.40
2019-03-31T10:29:03.239Z,13.00
2019-03-31T10:30:03.099Z,13.50
2019-03-31T10:31:02.944Z,12.60
2019-03-31T10:32:02.928Z,12.00
2019-03-31T10:33:02.947Z,12.70
2019-03-31T10:34:02.913Z,11.30
2019-03-31T10:35:02.929Z,10.50
2019-03-31T10:36:02.882Z,10.40
2019-03-31T10:37:02.871Z,10.80
2019-03-31T10:38:02.874Z,9.50
2019-03-31T10:39:02.902Z,10.50
2019-03-31T10:40:02.861Z,10.30
2019-03-31T10:41:02.889Z,10.70
2019-03-31T10:42:02.814Z,9.80
2019-03-31T10:43:02.809Z,10.30
2019-03-31T10:44:02.815Z,12.90
2019-03-31T10:45:02.787Z,13.90
2019-03-31T10:46:02.767Z,11.70
2019-03-31T10:47:02.755Z,12.40
2019-03-31T10:48:02.760Z,12.20
2019-03-31T10:49:02.747Z,12.30
2019-03-31T10:50:02.727Z,12.20
2019-03-31T10:51:02.732Z,12.20
2019-03-31T10:52:02.697Z,12.40
2019-03-31T10:53:02.687Z,12.30
2019-03-31T10:54:04.556Z,13.00
2019-03-31T10:55:02.670Z,11.60
2019-03-31T10:56:02.698Z,12.20
2019-03-31T10:57:02.643Z,11.40
2019-03-31T10:58:02.636Z,9.20
2019-03-31T10:59:02.644Z,8.90
2019-03-31T11:00:02.623Z,13.20
2019-03-31T11:01:02.593Z,11.30
2019-03-31T11:02:02.590Z,11.30
2019-03-31T11:03:02.650Z,10.70
2019-03-31T11:04:02.589Z,9.20
2019-03-31T11:05:02.556Z,10.70
2019-03-31T11:06:02.549Z,9.20
2019-03-31T11:07:03.622Z,7.60
2019-03-31T11:08:02.524Z,9.20
2019-03-31T11:09:02.574Z,8.30
2019-03-31T11:10:02.558Z,8.40
2019-03-31T11:11:02.490Z,8.20
2019-03-31T11:12:02.492Z,7.60
2019-03-31T11:13:02.481Z,7.30
2019-03-31T11:14:02.471Z,6.90
2019-03-31T11:15:02.485Z,10.30
2019-03-31T11:16:02.450Z,6.10
2019-03-31T11:17:02.450Z,6.70
2019-03-31T11:18:02.437Z,7.80
2019-03-31T11:19:02.415Z,6.10
2019-03-31T11:20:02.459Z,5.80
2019-03-31T11:21:02.389Z,5.60
2019-03-31T11:22:02.418Z,6.30
2019-03-31T11:23:02.372Z,6.50
2019-03-31T11:24:02.348Z,6.60
2019-03-31T11:25:02.367Z,7.90
2019-03-31T11:26:02.334Z,6.50
2019-03-31T11:27:02.320Z,6.80
2019-03-31T11:28:02.310Z,6.50
2019-03-31T11:29:02.296Z,7.80
2019-03-31T11:30:02.326Z,9.10
2019-03-31T11:31:02.277Z,9.10
2019-03-31T11:32:02.284Z,7.60
2019-03-31T11:33:02.260Z,7.90
2019-03-31T11:34:02.244Z,8.60
2019-03-31T11:35:02.275Z,10.90
2019-03-31T11:36:02.223Z,9.40
2019-03-31T11:37:12.828Z,8.60
2019-03-31T11:38:03.207Z,8.10
2019-03-31T11:39:02.207Z,8.80
2019-03-31T11:40:02.212Z,9.70
2019-03-31T11:41:02.176Z,9.70
2019-03-31T11:42:02.149Z,9.40
2019-03-31T11:43:02.143Z,9.90
2019-03-31T11:44:02.137Z,10.60
2019-03-31T11:45:02.168Z,9.00
2019-03-31T11:46:02.106Z,10.70
2019-03-31T11:47:02.111Z,9.40
2019-03-31T11:48:02.103Z,8.60
2019-03-31T11:49:02.070Z,8.40
2019-03-31T11:50:02.171Z,10.30
2019-03-31T11:51:02.084Z,10.40
2019-03-31T11:52:02.049Z,10.20
2019-03-31T11:53:02.171Z,9.80
2019-03-31T11:54:02.019Z,8.60
2019-03-31T11:55:02.033Z,9.00
2019-03-31T11:56:02.048Z,9.80
2019-03-31T11:57:01.997Z,8.70
2019-03-31T11:58:01.967Z,8.20
2019-03-31T11:59:02.075Z,6.80
2019-03-31T12:00:01.992Z,7.70
2019-03-31T12:01:01.979Z,6.40
2019-03-31T12:02:01.933Z,6.90
2019-03-31T12:03:01.938Z,6.60
2019-03-31T12:04:01.940Z,7.40
2019-03-31T12:05:01.892Z,6.60
2019-03-31T12:06:01.900Z,6.50
2019-03-31T12:07:01.880Z,7.60
2019-03-31T12:08:01.887Z,7.50
2019-03-31T12:09:01.924Z,6.70
2019-03-31T12:10:01.847Z,5.60
2019-03-31T12:11:02.213Z,6.00
2019-03-31T12:12:01.995Z,7.90
2019-03-31T12:13:02.145Z,8.00
2019-03-31T12:14:01.806Z,11.60
2019-03-31T12:15:01.852Z,12.30
2019-03-31T12:16:02.283Z,8.20
2019-03-31T12:17:01.840Z,8.30
2019-03-31T12:18:01.784Z,6.40
2019-03-31T12:19:01.757Z,5.20
2019-03-31T12:20:01.805Z,4.40
2019-03-31T12:21:01.879Z,6.80
2019-03-31T12:22:01.781Z,3.60
2019-03-31T12:23:01.786Z,3.60
2019-03-31T12:24:01.724Z,3.10
2019-03-31T12:25:01.740Z,3.70
2019-03-31T12:26:01.680Z,3.80
2019-03-31T12:27:01.742Z,3.50
2019-03-31T12:28:01.666Z,4.90
2019-03-31T12:29:01.672Z,4.40
2019-03-31T12:30:01.632Z,4.40
2019-03-31T12:31:01.640Z,4.70
2019-03-31T12:32:01.748Z,3.20
2019-03-31T12:33:01.957Z,4.10
2019-03-31T12:34:01.643Z,2.90
2019-03-31T12:35:01.645Z,4.20
2019-03-31T12:36:01.604Z,4.60
2019-03-31T12:37:02.225Z,4.90
2019-03-31T12:38:01.596Z,4.60
2019-03-31T12:39:01.568Z,2.90
2019-03-31T12:40:01.689Z,4.00
2019-03-31T12:41:02.168Z,3.10
2019-03-31T12:42:01.538Z,3.80
2019-03-31T12:43:01.520Z,3.90
2019-03-31T12:44:01.474Z,5.40
2019-03-31T12:45:01.469Z,5.80
2019-03-31T12:46:01.441Z,4.10
2019-03-31T12:47:01.477Z,3.30
2019-03-31T12:48:01.707Z,7.40
2019-03-31T12:49:01.441Z,5.00
2019-03-31T12:50:01.466Z,4.10
2019-03-31T12:51:01.390Z,5.80
2019-03-31T12:52:03.190Z,4.90
2019-03-31T12:53:01.383Z,4.00
2019-03-31T12:54:01.375Z,3.90
2019-03-31T12:55:01.403Z,3.00
2019-03-31T12:56:01.477Z,4.00